Time;durP1;ratioP1;P1;durP2;ratioP2;P2;SDS_P1;SDS_P2;PMS_P1;PMS_P2;Temp;Humidity;BMP_temperature;BMP_pressure;BME280_temperature;BME280_humidity;BME280_pressure;Samples;Min_cycle;Max_cycle;Signal;HPM_P1;HPM_P2
2023/07/06 00:01:02;;;;;;;15.60;9.07;;;;;;;;;;6147813;23;20005;-68
2023/07/06 00:03:31;;;;;;;11.35;8.50;;;;;;;;;;6147920;23;20020;-67
2023/07/06 00:05:57;;;;;;;16.55;8.43;;;;;;;;;;6147916;23;20009;-68
2023/07/06 00:08:23;;;;;;;10.20;8.27;;;;;;;;;;6148030;23;20020;-68
2023/07/06 00:10:49;;;;;;;11.35;8.18;;;;;;;;;;6147489;23;20080;-68
2023/07/06 00:13:16;;;;;;;9.60;7.20;;;;;;;;;;6148131;23;20032;-68
2023/07/06 00:15:43;;;;;;;10.68;8.38;;;;;;;;;;6147216;23;20028;-67
2023/07/06 00:18:10;;;;;;;12.20;8.13;;;;;;;;;;6147851;23;20036;-68
2023/07/06 00:20:39;;;;;;;11.10;7.75;;;;;;;;;;6147487;23;20002;-68
2023/07/06 00:23:05;;;;;;;10.10;7.40;;;;;;;;;;6148191;23;20461;-68
2023/07/06 00:25:33;;;;;;;8.93;7.03;;;;;;;;;;6149765;23;20055;-68
2023/07/06 00:28:02;;;;;;;10.15;7.88;;;;;;;;;;6150028;23;20331;-68
2023/07/06 00:33:28;;;;;;;10.20;8.35;;;;;;;;;;6147194;23;20048;-68
2023/07/06 00:35:54;;;;;;;12.13;8.57;;;;;;;;;;6147121;23;20006;-68
2023/07/06 00:38:23;;;;;;;13.50;8.18;;;;;;;;;;6149049;23;20055;-68
2023/07/06 00:40:51;;;;;;;15.32;8.50;;;;;;;;;;6149034;23;20016;-68
2023/07/06 00:43:23;;;;;;;8.93;7.15;;;;;;;;;;6148748;23;20076;-68
2023/07/06 00:46:04;;;;;;;10.52;7.82;;;;;;;;;;6148168;23;20398;-68
2023/07/06 00:48:36;;;;;;;11.00;7.60;;;;;;;;;;6122846;23;20024;-68
2023/07/06 00:51:08;;;;;;;10.00;8.07;;;;;;;;;;6172112;23;20017;-67
2023/07/06 00:53:40;;;;;;;7.95;6.78;;;;;;;;;;6149208;23;20010;-68
2023/07/06 00:56:08;;;;;;;10.40;7.63;;;;;;;;;;6148213;23;20450;-67
2023/07/06 00:58:38;;;;;;;11.95;7.47;;;;;;;;;;6122840;23;20009;-68
2023/07/06 01:01:07;;;;;;;12.18;7.20;;;;;;;;;;6148769;23;20005;-68
2023/07/06 01:03:43;;;;;;;11.15;7.82;;;;;;;;;;6149214;23;20005;-68
2023/07/06 01:06:24;;;;;;;8.32;7.43;;;;;;;;;;6146859;23;20017;-68
2023/07/06 01:08:52;;;;;;;9.50;7.95;;;;;;;;;;6122583;23;20141;-68
2023/07/06 01:11:19;;;;;;;9.73;7.72;;;;;;;;;;6148461;23;20446;-68
2023/07/06 01:13:49;;;;;;;9.93;7.80;;;;;;;;;;6149466;23;20010;-67
2023/07/06 01:16:32;;;;;;;11.90;8.35;;;;;;;;;;6148219;23;20018;-68
2023/07/06 01:19:25;;;;;;;16.05;8.18;;;;;;;;;;6148588;23;20350;-68
2023/07/06 01:22:28;;;;;;;10.40;7.90;;;;;;;;;;6147101;23;20025;-67
2023/07/06 01:25:03;;;;;;;10.20;7.40;;;;;;;;;;6148681;23;20009;-68
2023/07/06 01:27:50;;;;;;;10.98;7.78;;;;;;;;;;6148018;22;20252;-68
2023/07/06 01:30:48;;;;;;;11.60;7.95;;;;;;;;;;6147383;23;20028;-68
2023/07/06 01:33:19;;;;;;;11.95;7.40;;;;;;;;;;6147148;23;20485;-67
2023/07/06 01:35:54;;;;;;;10.25;7.80;;;;;;;;;;6147684;23;20010;-68
2023/07/06 01:38:22;;;;;;;10.85;7.93;;;;;;;;;;6147411;22;20439;-68
2023/07/06 01:40:49;;;;;;;12.65;8.00;;;;;;;;;;6148961;23;20013;-67
2023/07/06 01:43:16;;;;;;;10.05;7.95;;;;;;;;;;6146943;23;20469;-67
2023/07/06 01:45:44;;;;;;;9.55;7.25;;;;;;;;;;6122163;23;20458;-68
2023/07/06 01:48:11;;;;;;;8.98;7.28;;;;;;;;;;6148824;23;20399;-68
2023/07/06 01:50:48;;;;;;;9.93;7.43;;;;;;;;;;6122389;23;20016;-68
2023/07/06 01:53:30;;;;;;;11.43;8.00;;;;;;;;;;6148867;23;20013;-68
2023/07/06 01:56:13;;;;;;;12.80;8.27;;;;;;;;;;6171841;23;20017;-68
2023/07/06 01:59:09;;;;;;;11.35;7.68;;;;;;;;;;6171743;23;20443;-68
2023/07/06 02:01:42;;;;;;;10.88;8.15;;;;;;;;;;6144674;23;20045;-68
2023/07/06 02:04:10;;;;;;;11.25;8.25;;;;;;;;;;6148932;23;20343;-68
2023/07/06 02:06:37;;;;;;;9.80;7.82;;;;;;;;;;6147780;23;20059;-68
2023/07/06 02:09:04;;;;;;;9.45;7.80;;;;;;;;;;6147075;23;20450;-68
2023/07/06 02:11:32;;;;;;;11.88;7.22;;;;;;;;;;6148268;23;20017;-68
2023/07/06 02:13:58;;;;;;;10.30;7.07;;;;;;;;;;6147182;23;20082;-68
2023/07/06 02:16:23;;;;;;;10.35;7.55;;;;;;;;;;6146314;23;20006;-69
2023/07/06 02:18:49;;;;;;;11.05;7.22;;;;;;;;;;6148555;23;20328;-68
2023/07/06 02:21:15;;;;;;;13.43;8.20;;;;;;;;;;6122673;22;20013;-68
2023/07/06 02:23:41;;;;;;;11.30;7.15;;;;;;;;;;6122350;23;20378;-68
2023/07/06 02:26:07;;;;;;;9.68;7.05;;;;;;;;;;6148349;23;20059;-68
2023/07/06 02:28:34;;;;;;;10.82;7.72;;;;;;;;;;6171778;23;20013;-68
2023/07/06 02:31:03;;;;;;;13.32;7.18;;;;;;;;;;6148314;23;20033;-67
2023/07/06 02:33:30;;;;;;;9.27;6.53;;;;;;;;;;6148441;23;20096;-68
2023/07/06 02:35:56;;;;;;;8.85;6.82;;;;;;;;;;6121967;23;20317;-68
2023/07/06 02:38:22;;;;;;;9.57;7.47;;;;;;;;;;6148362;23;20013;-69
2023/07/06 02:40:49;;;;;;;11.35;6.82;;;;;;;;;;6146767;23;20013;-68
2023/07/06 02:43:16;;;;;;;10.23;7.20;;;;;;;;;;6148225;23;20045;-69
2023/07/06 02:45:47;;;;;;;10.32;7.78;;;;;;;;;;6121792;23;20063;-68
2023/07/06 02:48:13;;;;;;;10.02;7.15;;;;;;;;;;6147570;23;20014;-68
2023/07/06 02:50:39;;;;;;;10.10;7.22;;;;;;;;;;6122033;23;20048;-68
2023/07/06 02:53:05;;;;;;;10.32;7.78;;;;;;;;;;6122243;23;20523;-68
2023/07/06 02:55:32;;;;;;;9.38;7.57;;;;;;;;;;6148289;23;20001;-68
2023/07/06 02:57:58;;;;;;;12.43;7.35;;;;;;;;;;6121801;23;20059;-68
2023/07/06 03:00:26;;;;;;;13.82;8.60;;;;;;;;;;6171442;23;20032;-67
2023/07/06 03:02:51;;;;;;;9.95;7.47;;;;;;;;;;6146927;22;20009;-68
2023/07/06 03:05:22;;;;;;;10.48;7.28;;;;;;;;;;6148362;23;20385;-68
2023/07/06 03:07:51;;;;;;;10.63;7.68;;;;;;;;;;6148141;22;20025;-67
2023/07/06 03:10:19;;;;;;;10.30;8.13;;;;;;;;;;6148264;23;20009;-68
2023/07/06 03:12:46;;;;;;;10.25;8.25;;;;;;;;;;6146560;22;20024;-68
2023/07/06 03:15:15;;;;;;;10.23;7.95;;;;;;;;;;6148522;23;20381;-68
2023/07/06 03:17:48;;;;;;;9.65;7.53;;;;;;;;;;6146308;22;20431;-68
2023/07/06 03:20:15;;;;;;;11.50;7.73;;;;;;;;;;6146832;22;20006;-68
2023/07/06 03:22:45;;;;;;;11.55;7.50;;;;;;;;;;6148448;23;20005;-68
2023/07/06 03:25:16;;;;;;;10.18;7.90;;;;;;;;;;6146394;22;20386;-68
2023/07/06 03:27:43;;;;;;;10.45;7.53;;;;;;;;;;6145975;22;20017;-67
2023/07/06 03:30:10;;;;;;;11.85;7.20;;;;;;;;;;6148210;23;20326;-68
2023/07/06 03:32:38;;;;;;;14.43;7.80;;;;;;;;;;6145701;22;20040;-68
2023/07/06 03:35:05;;;;;;;10.13;7.25;;;;;;;;;;6121956;22;20006;-68
2023/07/06 03:37:31;;;;;;;9.40;6.88;;;;;;;;;;6147361;23;20143;-68
2023/07/06 03:39:57;;;;;;;9.45;8.10;;;;;;;;;;6119411;23;20039;-68
2023/07/06 03:42:23;;;;;;;14.75;7.38;;;;;;;;;;6120084;23;20021;-68
2023/07/06 03:44:49;;;;;;;11.45;7.78;;;;;;;;;;6121423;23;20017;-68
2023/07/06 03:47:14;;;;;;;13.60;8.52;;;;;;;;;;6147229;22;20430;-68
2023/07/06 03:49:41;;;;;;;12.57;8.10;;;;;;;;;;6147817;23;20032;-68
2023/07/06 03:52:07;;;;;;;10.85;7.85;;;;;;;;;;6147967;23;20017;-68
2023/07/06 03:54:34;;;;;;;8.82;7.25;;;;;;;;;;6148203;23;20138;-68
2023/07/06 03:57:05;;;;;;;12.48;8.05;;;;;;;;;;6148150;22;20142;-68
2023/07/06 03:59:31;;;;;;;12.88;7.25;;;;;;;;;;6148226;22;20405;-68
2023/07/06 04:01:57;;;;;;;10.57;7.50;;;;;;;;;;6149510;22;20002;-68
2023/07/06 04:04:28;;;;;;;11.88;7.63;;;;;;;;;;6149610;22;20338;-68
2023/07/06 04:06:55;;;;;;;9.75;6.88;;;;;;;;;;6148717;23;20005;-68
2023/07/06 04:09:24;;;;;;;14.05;7.30;;;;;;;;;;6149712;22;20032;-68
2023/07/06 04:11:52;;;;;;;13.57;6.88;;;;;;;;;;6149902;22;20380;-68
2023/07/06 04:14:24;;;;;;;11.02;6.78;;;;;;;;;;6148539;23;20175;-69
2023/07/06 04:16:51;;;;;;;9.30;6.22;;;;;;;;;;6149546;22;20013;-68
2023/07/06 04:19:17;;;;;;;9.88;7.20;;;;;;;;;;6149802;22;20465;-68
2023/07/06 04:21:43;;;;;;;12.55;6.68;;;;;;;;;;6149749;22;20002;-68
2023/07/06 04:24:08;;;;;;;10.10;6.13;;;;;;;;;;6150039;22;20048;-68
2023/07/06 04:26:34;;;;;;;8.63;6.85;;;;;;;;;;6149081;22;20168;-68
2023/07/06 04:29:00;;;;;;;8.30;5.97;;;;;;;;;;6149649;23;20330;-69
2023/07/06 04:31:27;;;;;;;13.73;6.47;;;;;;;;;;6150221;23;20457;-68
2023/07/06 04:33:52;;;;;;;10.50;5.88;;;;;;;;;;6149606;22;20010;-68
2023/07/06 04:36:18;;;;;;;10.70;5.90;;;;;;;;;;6148806;22;20016;-68
2023/07/06 04:38:44;;;;;;;8.80;6.22;;;;;;;;;;6149322;22;20020;-69
2023/07/06 04:41:12;;;;;;;8.57;5.80;;;;;;;;;;6149456;23;20020;-68
2023/07/06 04:43:38;;;;;;;9.35;6.07;;;;;;;;;;6149547;22;20024;-68
2023/07/06 04:46:04;;;;;;;13.20;6.43;;;;;;;;;;6146468;23;20006;-68
2023/07/06 04:48:30;;;;;;;12.38;6.80;;;;;;;;;;6148473;23;20075;-67
2023/07/06 04:50:56;;;;;;;9.35;6.65;;;;;;;;;;6148319;23;20006;-67
2023/07/06 04:53:23;;;;;;;9.02;5.82;;;;;;;;;;6146299;22;20002;-66
2023/07/06 04:55:50;;;;;;;7.70;5.80;;;;;;;;;;6147804;23;20067;-68
2023/07/06 04:58:16;;;;;;;8.25;5.90;;;;;;;;;;6148263;23;20334;-67
2023/07/06 05:00:45;;;;;;;11.20;6.20;;;;;;;;;;6121083;23;20013;-68
2023/07/06 05:03:12;;;;;;;9.50;5.95;;;;;;;;;;6147263;23;20376;-68
2023/07/06 05:05:40;;;;;;;8.43;5.88;;;;;;;;;;6149117;22;20058;-68
2023/07/06 05:08:12;;;;;;;8.90;5.90;;;;;;;;;;6149397;22;20066;-67
2023/07/06 05:10:38;;;;;;;;;;;;;;;;;;6149895;23;20411;-66
2023/07/06 05:13:05;;;;;;;9.27;5.95;;;;;;;;;;6148730;23;19920;-67
2023/07/06 05:15:31;;;;;;;12.82;6.03;;;;;;;;;;6149461;23;20583;-67
2023/07/06 05:17:57;;;;;;;9.75;7.00;;;;;;;;;;6149543;22;20013;-68
2023/07/06 05:20:24;;;;;;;9.35;6.25;;;;;;;;;;6150122;22;20009;-67
2023/07/06 05:22:50;;;;;;;9.75;5.55;;;;;;;;;;6149475;23;20025;-67
2023/07/06 05:25:17;;;;;;;11.13;6.32;;;;;;;;;;6149470;22;20015;-68
2023/07/06 05:27:44;;;;;;;8.50;5.80;;;;;;;;;;6149074;23;20006;-67
2023/07/06 05:30:10;;;;;;;8.55;6.05;;;;;;;;;;6149454;23;20039;-67
2023/07/06 05:32:36;;;;;;;10.50;5.85;;;;;;;;;;6149848;22;20001;-68
2023/07/06 05:35:02;;;;;;;8.23;6.07;;;;;;;;;;6149544;23;20016;-67
2023/07/06 05:37:28;;;;;;;13.20;6.22;;;;;;;;;;6148387;23;20001;-68
2023/07/06 05:39:54;;;;;;;11.18;7.38;;;;;;;;;;6148954;22;20197;-67
2023/07/06 05:42:19;;;;;;;8.07;5.93;;;;;;;;;;6149053;22;19997;-67
2023/07/06 05:44:46;;;;;;;11.25;6.20;;;;;;;;;;6149432;22;20013;-67
2023/07/06 05:47:12;;;;;;;13.13;7.20;;;;;;;;;;6149807;23;20330;-67
2023/07/06 05:49:38;;;;;;;11.00;6.45;;;;;;;;;;6150015;22;20017;-67
2023/07/06 05:52:05;;;;;;;12.40;6.93;;;;;;;;;;6150218;23;20037;-67
2023/07/06 05:54:31;;;;;;;10.65;7.10;;;;;;;;;;6149500;23;20020;-67
2023/07/06 05:56:57;;;;;;;13.15;6.88;;;;;;;;;;6148820;22;20033;-67
2023/07/06 05:59:24;;;;;;;13.68;7.88;;;;;;;;;;6149310;23;20104;-67
2023/07/06 06:01:51;;;;;;;9.00;7.40;;;;;;;;;;6149247;23;19998;-67
2023/07/06 06:04:17;;;;;;;8.45;6.93;;;;;;;;;;6149460;23;20029;-68
2023/07/06 06:06:53;;;;;;;8.98;7.55;;;;;;;;;;6149079;22;20012;-68
2023/07/06 06:09:21;;;;;;;15.88;7.60;;;;;;;;;;6149415;23;20010;-67
2023/07/06 06:11:48;;;;;;;13.48;7.35;;;;;;;;;;6149537;22;20010;-67
2023/07/06 06:14:14;;;;;;;11.05;7.10;;;;;;;;;;6149797;22;20013;-68
2023/07/06 06:16:40;;;;;;;13.70;6.72;;;;;;;;;;6148862;22;20017;-67
2023/07/06 06:19:07;;;;;;;13.73;7.13;;;;;;;;;;6147665;23;20391;-67
2023/07/06 06:21:33;;;;;;;10.68;6.32;;;;;;;;;;6148642;22;19997;-69
2023/07/06 06:24:02;;;;;;;9.70;6.55;;;;;;;;;;6150340;22;20310;-68
2023/07/06 06:26:29;;;;;;;9.35;7.22;;;;;;;;;;6150016;22;20016;-68
2023/07/06 06:28:57;;;;;;;14.25;6.93;;;;;;;;;;6149557;22;20021;-68
2023/07/06 06:31:24;;;;;;;9.55;7.00;;;;;;;;;;6149749;22;20055;-68
2023/07/06 06:33:50;;;;;;;11.32;6.75;;;;;;;;;;6149976;23;20395;-67
2023/07/06 06:36:19;;;;;;;10.30;6.90;;;;;;;;;;6149744;23;20365;-67
2023/07/06 06:38:46;;;;;;;9.10;6.90;;;;;;;;;;6149768;22;20013;-66
2023/07/06 06:41:11;;;;;;;13.48;7.50;;;;;;;;;;6150467;22;20005;-67
2023/07/06 06:43:38;;;;;;;8.80;6.75;;;;;;;;;;6150217;22;20029;-68
2023/07/06 06:46:05;;;;;;;10.85;6.53;;;;;;;;;;6147745;23;20009;-68
2023/07/06 06:48:35;;;;;;;13.93;6.50;;;;;;;;;;6148858;23;20442;-68
2023/07/06 06:51:02;;;;;;;8.93;6.50;;;;;;;;;;6122925;23;20439;-67
2023/07/06 06:53:28;;;;;;;10.40;6.70;;;;;;;;;;6149068;23;20343;-68
2023/07/06 06:55:54;;;;;;;8.73;6.22;;;;;;;;;;6149204;22;20001;-68
2023/07/06 06:58:24;;;;;;;9.05;6.70;;;;;;;;;;6147659;23;20016;-68
2023/07/06 07:01:00;;;;;;;10.35;6.75;;;;;;;;;;6149146;23;20016;-69
2023/07/06 07:03:29;;;;;;;9.20;6.22;;;;;;;;;;6149347;23;20005;-68
2023/07/06 07:06:17;;;;;;;10.57;6.80;;;;;;;;;;6149161;22;20006;-69
2023/07/06 07:08:45;;;;;;;9.73;5.97;;;;;;;;;;6149411;23;20439;-68
2023/07/06 07:11:12;;;;;;;11.68;6.80;;;;;;;;;;6148872;22;20020;-67
2023/07/06 07:13:40;;;;;;;9.65;6.57;;;;;;;;;;6149035;22;20078;-67
2023/07/06 07:16:07;;;;;;;8.52;6.28;;;;;;;;;;6148824;23;20006;-67
2023/07/06 07:18:34;;;;;;;14.80;6.57;;;;;;;;;;6148792;23;20032;-68
2023/07/06 07:21:01;;;;;;;13.57;6.18;;;;;;;;;;6149198;22;20009;-68
2023/07/06 07:23:35;;;;;;;8.63;6.05;;;;;;;;;;6149158;22;20051;-68
2023/07/06 07:26:03;;;;;;;9.90;6.15;;;;;;;;;;6148904;23;20037;-69
2023/07/06 07:28:31;;;;;;;8.88;6.57;;;;;;;;;;6148954;22;20009;-68
2023/07/06 07:30:58;;;;;;;7.82;5.68;;;;;;;;;;6148958;23;20014;-68
2023/07/06 07:33:24;;;;;;;6.88;5.60;;;;;;;;;;6148463;22;20012;-69
2023/07/06 07:35:54;;;;;;;9.35;6.60;;;;;;;;;;6122943;22;20009;-68
2023/07/06 07:38:20;;;;;;;8.45;5.93;;;;;;;;;;6148979;22;20103;-67
2023/07/06 07:41:00;;;;;;;13.35;5.90;;;;;;;;;;6149213;23;20072;-68
2023/07/06 07:43:29;;;;;;;7.90;5.88;;;;;;;;;;6148948;23;20456;-68
2023/07/06 07:46:00;;;;;;;9.15;6.20;;;;;;;;;;6148761;22;20008;-66
2023/07/06 07:48:27;;;;;;;8.55;6.07;;;;;;;;;;6149028;23;20013;-69
2023/07/06 07:50:58;;;;;;;7.05;6.10;;;;;;;;;;6148310;22;20002;-68
2023/07/06 07:53:26;;;;;;;10.52;6.15;;;;;;;;;;6148256;23;20045;-67
2023/07/06 07:55:56;;;;;;;7.32;5.25;;;;;;;;;;6148772;22;20435;-68
2023/07/06 07:58:23;;;;;;;9.30;6.20;;;;;;;;;;6146917;23;20009;-67
2023/07/06 08:00:56;;;;;;;7.80;5.50;;;;;;;;;;6148542;22;20046;-67
2023/07/06 08:03:23;;;;;;;6.97;5.13;;;;;;;;;;6148997;22;20036;-67
2023/07/06 08:05:56;;;;;;;8.75;5.60;;;;;;;;;;6149008;23;20323;-67
2023/07/06 08:08:23;;;;;;;6.75;5.70;;;;;;;;;;6149452;22;20040;-67
2023/07/06 08:10:51;;;;;;;8.40;5.80;;;;;;;;;;6148351;23;20092;-67
2023/07/06 08:13:17;;;;;;;8.55;5.80;;;;;;;;;;6149241;23;20010;-67
2023/07/06 08:15:47;;;;;;;12.20;5.90;;;;;;;;;;6148481;23;20010;-67
2023/07/06 08:18:13;;;;;;;10.57;5.25;;;;;;;;;;6149626;22;20088;-66
2023/07/06 08:20:40;;;;;;;8.57;5.40;;;;;;;;;;6148344;23;20457;-67
2023/07/06 08:23:10;;;;;;;8.13;5.25;;;;;;;;;;6148097;22;20005;-67
2023/07/06 08:25:42;;;;;;;10.70;5.75;;;;;;;;;;6148441;23;20014;-67
2023/07/06 08:28:10;;;;;;;7.45;5.72;;;;;;;;;;6149087;22;20017;-68
2023/07/06 08:30:40;;;;;;;9.65;5.15;;;;;;;;;;6148581;22;20074;-68
2023/07/06 08:33:07;;;;;;;6.97;5.13;;;;;;;;;;6148447;22;20005;-69
2023/07/06 08:35:33;;;;;;;6.53;4.93;;;;;;;;;;6148539;22;20037;-68
2023/07/06 08:38:04;;;;;;;10.45;5.50;;;;;;;;;;6148901;22;20386;-69
2023/07/06 08:40:31;;;;;;;11.70;5.88;;;;;;;;;;6148897;22;20431;-67
2023/07/06 08:42:58;;;;;;;9.35;5.30;;;;;;;;;;6148448;23;20006;-68
2023/07/06 08:45:30;;;;;;;7.50;5.47;;;;;;;;;;6149173;22;20014;-68
2023/07/06 08:47:56;;;;;;;9.75;6.03;;;;;;;;;;6149687;22;20098;-68
2023/07/06 08:50:28;;;;;;;6.03;4.63;;;;;;;;;;6150063;22;20001;-68
2023/07/06 08:52:56;;;;;;;7.90;4.80;;;;;;;;;;6150405;23;20014;-67
2023/07/06 08:55:22;;;;;;;5.60;4.97;;;;;;;;;;6149821;22;20125;-67
2023/07/06 08:57:49;;;;;;;6.78;5.22;;;;;;;;;;6149749;23;20006;-67
2023/07/06 09:00:27;;;;;;;8.93;5.35;;;;;;;;;;6149314;22;20008;-68
2023/07/06 09:02:55;;;;;;;6.22;5.07;;;;;;;;;;6149738;22;20084;-69
2023/07/06 09:05:21;;;;;;;7.07;4.95;;;;;;;;;;6149735;23;20002;-68
2023/07/06 09:07:48;;;;;;;6.47;5.40;;;;;;;;;;6149440;22;20057;-69
2023/07/06 09:10:23;;;;;;;5.93;4.53;;;;;;;;;;6149676;23;20029;-68
2023/07/06 09:12:50;;;;;;;5.88;4.28;;;;;;;;;;6147821;23;20017;-67
2023/07/06 09:15:24;;;;;;;5.80;4.72;;;;;;;;;;6150013;23;20040;-68
2023/07/06 09:17:50;;;;;;;8.30;4.90;;;;;;;;;;6149787;23;20081;-67
2023/07/06 09:20:19;;;;;;;7.15;5.30;;;;;;;;;;6149890;23;20019;-69
2023/07/06 09:22:47;;;;;;;10.40;5.40;;;;;;;;;;6150349;22;20013;-69
2023/07/06 09:25:21;;;;;;;7.00;4.65;;;;;;;;;;6150263;23;20009;-68
2023/07/06 09:27:49;;;;;;;7.82;4.82;;;;;;;;;;6149203;22;20058;-69
2023/07/06 09:30:29;;;;;;;7.15;5.03;;;;;;;;;;6149632;23;20339;-70
2023/07/06 09:33:13;;;;;;;5.82;4.78;;;;;;;;;;6149620;23;20097;-67
2023/07/06 09:35:41;;;;;;;10.05;5.18;;;;;;;;;;6149619;22;20013;-68
2023/07/06 09:38:12;;;;;;;6.30;5.25;;;;;;;;;;6149246;23;20005;-68
2023/07/06 09:40:39;;;;;;;5.90;5.00;;;;;;;;;;6149515;23;20009;-67
2023/07/06 09:43:24;;;;;;;9.90;5.13;;;;;;;;;;6149721;23;19997;-68
2023/07/06 09:45:51;;;;;;;7.05;5.15;;;;;;;;;;6149870;22;20013;-69
2023/07/06 09:48:37;;;;;;;7.25;5.38;;;;;;;;;;6149636;22;20366;-68
2023/07/06 09:51:11;;;;;;;9.68;5.57;;;;;;;;;;6149024;23;20488;-68
2023/07/06 09:53:59;;;;;;;8.77;5.60;;;;;;;;;;6149851;22;20021;-68
2023/07/06 09:56:25;;;;;;;7.65;5.30;;;;;;;;;;6149095;22;20439;-68
2023/07/06 09:58:52;;;;;;;10.93;5.28;;;;;;;;;;6148901;23;20009;-71
2023/07/06 10:01:40;;;;;;;9.35;6.28;;;;;;;;;;6145709;23;20015;-69
2023/07/06 10:04:21;;;;;;;7.65;5.50;;;;;;;;;;6147471;23;20024;-69
2023/07/06 10:07:00;;;;;;;9.32;5.55;;;;;;;;;;6149254;22;20014;-68
2023/07/06 10:09:32;;;;;;;11.05;6.00;;;;;;;;;;6149829;22;20009;-68
2023/07/06 10:12:10;;;;;;;8.75;5.88;;;;;;;;;;6148759;23;20439;-68
2023/07/06 10:14:44;;;;;;;8.65;5.32;;;;;;;;;;6149003;22;20021;-68
2023/07/06 10:17:34;;;;;;;6.88;4.40;;;;;;;;;;6148835;23;20013;-69
2023/07/06 10:20:23;;;;;;;8.23;5.40;;;;;;;;;;6147402;22;20017;-68
2023/07/06 10:23:07;;;;;;;6.18;4.90;;;;;;;;;;6148619;22;20383;-67
2023/07/06 10:25:50;;;;;;;8.82;5.40;;;;;;;;;;6148982;23;20009;-68
2023/07/06 10:28:23;;;;;;;6.25;4.80;;;;;;;;;;6146790;23;20024;-68
2023/07/06 10:30:51;;;;;;;;;;;;;;;;;;6148866;22;20343;-68
2023/07/06 10:33:23;;;;;;;7.68;5.80;;;;;;;;;;6122489;23;19913;-68
2023/07/06 10:35:50;;;;;;;6.82;5.13;;;;;;;;;;6149055;23;20012;-68
2023/07/06 10:38:18;;;;;;;6.93;5.15;;;;;;;;;;6149487;23;20029;-68
2023/07/06 10:41:09;;;;;;;10.52;5.45;;;;;;;;;;6148978;23;20017;-67
2023/07/06 10:43:38;;;;;;;5.78;5.13;;;;;;;;;;6148512;23;20040;-68
2023/07/06 10:46:30;;;;;;;6.18;5.10;;;;;;;;;;6149509;23;20005;-67
2023/07/06 10:48:57;;;;;;;9.40;5.57;;;;;;;;;;6149730;23;20013;-68
2023/07/06 10:51:27;;;;;;;8.57;4.90;;;;;;;;;;6149905;22;20339;-67
2023/07/06 10:54:16;;;;;;;7.03;4.82;;;;;;;;;;6149584;22;20005;-68
2023/07/06 10:57:11;;;;;;;8.77;6.05;;;;;;;;;;6147920;22;20432;-68
2023/07/06 10:59:45;;;;;;;9.82;5.80;;;;;;;;;;6150257;22;20016;-68
2023/07/06 11:02:17;;;;;;;9.00;5.15;;;;;;;;;;6150131;22;20052;-68
2023/07/06 11:04:53;;;;;;;8.90;4.57;;;;;;;;;;6150094;22;20088;-67
2023/07/06 11:07:42;;;;;;;10.73;5.32;;;;;;;;;;6149586;22;20013;-68
2023/07/06 11:10:13;;;;;;;7.25;4.78;;;;;;;;;;6148821;23;20009;-68
2023/07/06 11:13:18;;;;;;;7.75;4.68;;;;;;;;;;6146713;22;20075;-67
2023/07/06 11:15:45;;;;;;;5.93;4.72;;;;;;;;;;6147327;23;20014;-67
2023/07/06 11:18:33;;;;;;;7.80;5.50;;;;;;;;;;6147784;23;20006;-66
2023/07/06 11:21:39;;;;;;;9.43;4.70;;;;;;;;;;6148094;23;20089;-67
2023/07/06 11:24:08;;;;;;;7.68;5.28;;;;;;;;;;6145111;22;20491;-67
2023/07/06 11:26:44;;;;;;;10.75;5.40;;;;;;;;;;6147931;23;20006;-67
2023/07/06 11:29:10;;;;;;;7.97;4.97;;;;;;;;;;6148503;23;20009;-69
2023/07/06 11:31:43;;;;;;;7.50;5.35;;;;;;;;;;6148367;22;20083;-67
2023/07/06 11:35:07;;;;;;;7.80;5.70;;;;;;;;;;6148548;22;20037;-66
2023/07/06 11:37:49;;;;;;;7.07;4.88;;;;;;;;;;6181594;23;20109;-65
2023/07/06 11:40:26;;;;;;;9.52;5.15;;;;;;;;;;6148944;22;20017;-67
2023/07/06 11:43:04;;;;;;;7.20;5.03;;;;;;;;;;6147794;23;20497;-65
2023/07/06 11:45:39;;;;;;;6.47;4.97;;;;;;;;;;6148655;22;20088;-65
2023/07/06 11:48:20;;;;;;;8.48;4.55;;;;;;;;;;6148209;22;20058;-66
2023/07/06 11:50:49;;;;;;;7.82;5.00;;;;;;;;;;6148431;22;20063;-65
2023/07/06 11:56:18;;;;;;;9.88;5.38;;;;;;;;;;6148245;22;20009;-65
2023/07/06 11:58:55;;;;;;;9.63;5.03;;;;;;;;;;6147509;22;20045;-66
2023/07/06 12:01:40;;;;;;;5.60;4.45;;;;;;;;;;6147733;23;20033;-66
2023/07/06 12:04:12;;;;;;;5.55;4.35;;;;;;;;;;6148888;22;20430;-65
2023/07/06 12:06:38;;;;;;;6.25;5.30;;;;;;;;;;6148035;22;20014;-66
2023/07/06 12:09:07;;;;;;;8.35;4.95;;;;;;;;;;6147369;22;20091;-66
2023/07/06 12:11:35;;;;;;;5.35;4.60;;;;;;;;;;6145897;22;20524;-66
2023/07/06 12:14:01;;;;;;;7.18;4.25;;;;;;;;;;6148316;23;20414;-66
2023/07/06 12:16:31;;;;;;;7.80;4.57;;;;;;;;;;6147946;22;20092;-66
2023/07/06 12:19:05;;;;;;;7.55;4.88;;;;;;;;;;6148504;23;20350;-66
2023/07/06 12:21:35;;;;;;;6.55;4.60;;;;;;;;;;6149915;23;20010;-67
2023/07/06 12:24:02;;;;;;;6.07;4.05;;;;;;;;;;6149425;23;20014;-66
2023/07/06 12:26:30;;;;;;;4.95;4.43;;;;;;;;;;6149670;22;20006;-66
2023/07/06 12:28:57;;;;;;;4.70;4.20;;;;;;;;;;6149597;22;20017;-66
2023/07/06 12:31:23;;;;;;;7.03;4.43;;;;;;;;;;6149381;23;20001;-66
2023/07/06 12:33:58;;;;;;;6.07;4.55;;;;;;;;;;6150065;22;20010;-66
2023/07/06 12:36:33;;;;;;;9.02;4.82;;;;;;;;;;6121736;23;20485;-66
2023/07/06 12:39:01;;;;;;;7.13;5.15;;;;;;;;;;6153236;23;20514;-66
2023/07/06 12:41:33;;;;;;;7.70;5.00;;;;;;;;;;6149386;23;20012;-66
2023/07/06 12:43:59;;;;;;;5.70;4.70;;;;;;;;;;6149914;22;20009;-66
2023/07/06 12:46:30;;;;;;;6.63;4.45;;;;;;;;;;6148505;23;20008;-65
2023/07/06 12:49:02;;;;;;;6.00;4.03;;;;;;;;;;6149710;23;20044;-66
2023/07/06 12:51:29;;;;;;;6.03;4.43;;;;;;;;;;6150177;22;20092;-67
2023/07/06 12:53:55;;;;;;;6.95;4.20;;;;;;;;;;6150604;22;20064;-66
2023/07/06 12:56:23;;;;;;;6.90;4.53;;;;;;;;;;6150453;22;20295;-66
2023/07/06 12:59:03;;;;;;;5.53;4.28;;;;;;;;;;6148820;22;20016;-67
2023/07/06 13:01:33;;;;;;;6.13;4.53;;;;;;;;;;6147758;23;20100;-69
2023/07/06 13:04:09;;;;;;;7.55;4.28;;;;;;;;;;6148962;23;20065;-67
2023/07/06 13:06:44;;;;;;;7.22;4.70;;;;;;;;;;6148978;22;20017;-67
2023/07/06 13:09:22;;;;;;;6.25;4.85;;;;;;;;;;6149147;22;20009;-67
2023/07/06 13:11:54;;;;;;;6.35;4.60;;;;;;;;;;6149406;22;20058;-66
2023/07/06 13:14:23;;;;;;;7.07;4.80;;;;;;;;;;6149231;23;20014;-66
2023/07/06 13:16:57;;;;;;;10.23;4.90;;;;;;;;;;6122821;22;20373;-66
2023/07/06 13:19:24;;;;;;;7.88;4.43;;;;;;;;;;6149306;23;20013;-67
2023/07/06 13:21:55;;;;;;;8.90;4.55;;;;;;;;;;6148712;23;20085;-66
2023/07/06 13:24:22;;;;;;;7.63;4.85;;;;;;;;;;6149257;22;20014;-67
2023/07/06 13:26:50;;;;;;;9.57;4.75;;;;;;;;;;6147875;23;20348;-68
2023/07/06 13:29:16;;;;;;;6.25;4.72;;;;;;;;;;6148248;23;20041;-66
2023/07/06 13:31:43;;;;;;;5.03;4.20;;;;;;;;;;6146013;23;20010;-67
2023/07/06 13:34:10;;;;;;;5.53;4.30;;;;;;;;;;6149566;22;20041;-67
2023/07/06 13:36:36;;;;;;;6.80;5.00;;;;;;;;;;6149238;23;20373;-66
2023/07/06 13:39:06;;;;;;;6.32;4.50;;;;;;;;;;6148886;23;20013;-66
2023/07/06 13:41:34;;;;;;;5.75;4.40;;;;;;;;;;6149367;22;20014;-65
2023/07/06 13:44:00;;;;;;;5.88;4.15;;;;;;;;;;6148859;23;20496;-67
2023/07/06 13:46:26;;;;;;;5.38;4.40;;;;;;;;;;6149294;22;20005;-67
2023/07/06 13:48:52;;;;;;;6.60;4.28;;;;;;;;;;6149038;22;20395;-67
2023/07/06 13:51:18;;;;;;;6.78;4.88;;;;;;;;;;6149148;22;20082;-67
2023/07/06 13:53:49;;;;;;;6.80;5.00;;;;;;;;;;6148990;23;20013;-66
2023/07/06 13:56:16;;;;;;;11.73;5.25;;;;;;;;;;6148234;22;20292;-67
2023/07/06 13:58:43;;;;;;;6.93;4.65;;;;;;;;;;6149008;22;20518;-67
2023/07/06 14:01:14;;;;;;;5.32;4.63;;;;;;;;;;6149370;23;20088;-67
2023/07/06 14:03:42;;;;;;;6.45;4.70;;;;;;;;;;6148910;23;20006;-66
2023/07/06 14:06:09;;;;;;;5.00;4.10;;;;;;;;;;6148666;23;20002;-66
2023/07/06 14:08:35;;;;;;;5.55;4.20;;;;;;;;;;6149422;22;20072;-66
2023/07/06 14:11:02;;;;;;;8.77;4.93;;;;;;;;;;6148986;23;20012;-66
2023/07/06 14:13:29;;;;;;;7.82;4.18;;;;;;;;;;6149371;22;20013;-66
2023/07/06 14:15:56;;;;;;;8.35;5.15;;;;;;;;;;6251502;22;20010;-67
2023/07/06 14:18:23;;;;;;;6.53;4.97;;;;;;;;;;6149689;22;20013;-67
2023/07/06 14:20:50;;;;;;;7.55;4.50;;;;;;;;;;6149281;23;20025;-66
2023/07/06 14:23:18;;;;;;;6.18;4.75;;;;;;;;;;6148426;23;20005;-66
2023/07/06 14:25:45;;;;;;;5.78;4.40;;;;;;;;;;6149873;22;19998;-67
2023/07/06 14:28:15;;;;;;;5.53;4.47;;;;;;;;;;6148486;23;20076;-66
2023/07/06 14:30:44;;;;;;;6.50;4.72;;;;;;;;;;6150102;22;20016;-67
2023/07/06 14:33:15;;;;;;;6.38;4.38;;;;;;;;;;6150400;23;20009;-65
2023/07/06 14:35:41;;;;;;;6.10;4.55;;;;;;;;;;6150452;22;20006;-67
2023/07/06 14:38:07;;;;;;;5.00;4.43;;;;;;;;;;6149605;23;20088;-66
2023/07/06 14:40:36;;;;;;;7.75;4.88;;;;;;;;;;6149794;22;20100;-67
2023/07/06 14:43:03;;;;;;;5.38;4.45;;;;;;;;;;6148747;22;20014;-67
2023/07/06 14:45:30;;;;;;;6.93;4.60;;;;;;;;;;6148104;22;20047;-66
2023/07/06 14:47:56;;;;;;;11.00;5.28;;;;;;;;;;6148022;23;20383;-66
2023/07/06 14:50:23;;;;;;;10.68;4.90;;;;;;;;;;6122718;23;20085;-67
2023/07/06 14:52:52;;;;;;;6.03;4.75;;;;;;;;;;6148119;22;20001;-67
2023/07/06 14:55:17;;;;;;;6.18;4.70;;;;;;;;;;6148562;23;20014;-67
2023/07/06 14:57:44;;;;;;;5.82;4.35;;;;;;;;;;6145901;23;20006;-66
2023/07/06 15:00:11;;;;;;;6.32;4.40;;;;;;;;;;6149147;23;20017;-66
2023/07/06 15:02:38;;;;;;;5.88;4.60;;;;;;;;;;6149010;22;20077;-67